createdAt,value
2023-12-10T00:00:23.364Z,50.17
2023-12-10T00:02:56.566Z,43.67
2023-12-10T00:05:32.301Z,45.34
2023-12-10T00:08:06.008Z,48.42
2023-12-10T00:10:39.255Z,45.52
2023-12-10T00:13:11.476Z,47.72
2023-12-10T00:15:46.250Z,46.79
2023-12-10T00:18:19.611Z,41.19
2023-12-10T00:20:52.822Z,46.80
2023-12-10T00:23:26.114Z,48.61
2023-12-10T00:25:59.334Z,41.39
2023-12-10T00:28:32.562Z,44.53
2023-12-10T00:31:10.143Z,49.65
2023-12-10T00:33:43.569Z,41.92
2023-12-10T00:36:17.346Z,46.27
2023-12-10T00:38:50.644Z,47.17
2023-12-10T00:41:23.879Z,45.35
2023-12-10T00:43:57.087Z,44.81
2023-12-10T00:46:31.767Z,41.70
2023-12-10T00:49:05.116Z,46.19
2023-12-10T00:51:38.780Z,44.11
2023-12-10T00:54:12.744Z,46.10
2023-12-10T00:56:46.861Z,42.91
2023-12-10T00:59:20.073Z,40.18
2023-12-10T01:01:54.720Z,43.23
2023-12-10T01:04:28.513Z,41.02
2023-12-10T01:07:01.836Z,42.17
2023-12-10T01:09:37.353Z,40.49
2023-12-10T01:12:10.884Z,36.58
2023-12-10T01:14:45.584Z,38.83
2023-12-10T01:17:20.173Z,38.64
2023-12-10T01:19:53.467Z,37.62
2023-12-10T01:22:26.919Z,36.52
2023-12-10T01:25:01.419Z,37.34
2023-12-10T01:27:34.691Z,30.97
2023-12-10T01:30:08.991Z,33.06
2023-12-10T01:32:43.911Z,32.90
2023-12-10T01:35:17.447Z,33.42
2023-12-10T01:37:50.913Z,35.28
2023-12-10T01:40:24.322Z,34.74
2023-12-10T01:42:57.643Z,32.20
2023-12-10T01:45:32.010Z,31.25
2023-12-10T01:48:09.852Z,33.09
2023-12-10T01:50:45.364Z,32.68
2023-12-10T01:53:19.537Z,33.26
2023-12-10T01:55:53.282Z,33.93
2023-12-10T01:58:26.487Z,31.53
2023-12-10T02:01:00.146Z,32.27
2023-12-10T02:03:36.233Z,31.11
2023-12-10T02:06:09.476Z,30.41
2023-12-10T02:08:42.699Z,32.06
2023-12-10T02:11:15.968Z,29.99
2023-12-10T02:13:50.701Z,33.13
2023-12-10T02:16:23.934Z,32.08
2023-12-10T02:18:58.652Z,29.39
2023-12-10T02:21:34.668Z,29.98
2023-12-10T02:24:16.793Z,27.38
2023-12-10T02:26:51.702Z,28.36
2023-12-10T02:29:25.191Z,30.55
2023-12-10T02:31:58.437Z,28.98
2023-12-10T02:34:31.735Z,29.67
2023-12-10T02:37:07.188Z,29.72
2023-12-10T02:39:40.527Z,30.15
2023-12-10T02:42:15.268Z,30.96
2023-12-10T02:44:48.570Z,33.65
2023-12-10T02:47:21.789Z,33.36
2023-12-10T02:49:55.005Z,31.17
2023-12-10T02:52:28.491Z,32.40
2023-12-10T02:55:01.829Z,33.45
2023-12-10T02:57:36.518Z,33.40
2023-12-10T03:00:11.864Z,31.81
2023-12-10T03:02:45.262Z,32.76
2023-12-10T03:05:18.603Z,35.43
2023-12-10T03:07:51.887Z,34.72
2023-12-10T03:10:25.118Z,35.75
2023-12-10T03:12:59.858Z,32.92
2023-12-10T03:15:33.195Z,38.49
2023-12-10T03:18:08.500Z,34.00
2023-12-10T03:20:41.817Z,34.87
2023-12-10T03:23:15.165Z,31.65
2023-12-10T03:25:50.680Z,31.07
2023-12-10T03:28:25.332Z,33.41
2023-12-10T03:30:58.573Z,32.02
2023-12-10T03:33:33.255Z,31.58
2023-12-10T03:36:07.152Z,31.60
2023-12-10T03:38:42.460Z,33.95
2023-12-10T03:41:15.836Z,35.03
2023-12-10T03:43:50.553Z,33.83
2023-12-10T03:46:23.796Z,34.12
2023-12-10T03:48:57.193Z,35.02
2023-12-10T03:51:32.511Z,34.35
2023-12-10T03:54:06.283Z,36.93
2023-12-10T03:56:39.521Z,31.96
2023-12-10T03:59:14.151Z,33.11
2023-12-10T04:01:47.442Z,38.50
2023-12-10T04:04:20.754Z,35.09
2023-12-10T04:06:54.003Z,33.73
2023-12-10T04:09:27.283Z,34.41
2023-12-10T04:12:01.491Z,34.93
2023-12-10T04:14:36.483Z,32.78
2023-12-10T04:17:09.639Z,34.34
2023-12-10T04:19:44.120Z,35.97
2023-12-10T04:22:19.607Z,32.32
2023-12-10T04:24:52.866Z,35.24
2023-12-10T04:27:26.846Z,33.96
2023-12-10T04:30:01.524Z,31.70
2023-12-10T04:32:34.948Z,35.96
2023-12-10T04:35:08.953Z,36.32
2023-12-10T04:37:42.576Z,35.94
2023-12-10T04:40:15.831Z,35.95
2023-12-10T04:42:49.932Z,35.71
2023-12-10T04:45:24.596Z,35.73
2023-12-10T04:47:58.057Z,34.36
2023-12-10T04:50:31.661Z,34.79
2023-12-10T04:53:04.954Z,32.15
2023-12-10T04:55:38.286Z,33.23
2023-12-10T04:58:11.835Z,33.95
2023-12-10T05:00:46.924Z,28.85
2023-12-10T05:03:20.310Z,31.73
2023-12-10T05:05:53.610Z,31.69
2023-12-10T05:08:27.141Z,32.05
2023-12-10T05:11:00.457Z,31.30
2023-12-10T05:13:33.718Z,30.72
2023-12-10T05:16:08.969Z,34.32
2023-12-10T05:18:42.265Z,30.65
2023-12-10T05:21:15.810Z,32.36
2023-12-10T05:23:49.050Z,33.87
2023-12-10T05:26:22.270Z,33.73
2023-12-10T05:28:55.502Z,29.76
2023-12-10T05:31:30.475Z,30.45
2023-12-10T05:34:03.742Z,31.28
2023-12-10T05:36:37.148Z,31.94
2023-12-10T05:39:12.091Z,30.51
2023-12-10T05:41:45.328Z,32.59
2023-12-10T05:44:18.521Z,30.86
2023-12-10T05:46:53.210Z,32.35
2023-12-10T05:49:26.650Z,32.00
2023-12-10T05:52:00.090Z,31.28
2023-12-10T05:54:33.445Z,30.39
2023-12-10T05:57:07.252Z,34.73
2023-12-10T05:59:40.443Z,34.23
2023-12-10T06:02:15.170Z,32.48
2023-12-10T06:04:48.432Z,32.70
2023-12-10T06:07:21.761Z,31.27
2023-12-10T06:09:55.008Z,32.14
2023-12-10T06:12:28.716Z,34.51
2023-12-10T06:15:02.158Z,33.41
2023-12-10T06:17:36.827Z,31.80
2023-12-10T06:20:11.283Z,30.59
2023-12-10T06:22:44.492Z,29.68
2023-12-10T06:25:17.741Z,29.45
2023-12-10T06:27:51.032Z,32.65
2023-12-10T06:30:24.395Z,34.42
2023-12-10T06:32:59.181Z,31.65
2023-12-10T06:35:34.689Z,31.82
2023-12-10T06:38:08.835Z,27.45
2023-12-10T06:40:42.056Z,31.26
2023-12-10T06:43:15.317Z,33.63
2023-12-10T06:45:49.153Z,33.05
2023-12-10T06:48:24.141Z,31.14
2023-12-10T06:50:57.525Z,30.13
2023-12-10T06:53:32.980Z,30.46
2023-12-10T06:56:06.875Z,30.75
2023-12-10T06:58:40.353Z,33.55
2023-12-10T07:01:16.105Z,30.83
2023-12-10T07:03:53.266Z,31.41
2023-12-10T07:06:26.544Z,28.81
2023-12-10T07:08:59.821Z,31.18
2023-12-10T07:11:33.103Z,32.28
2023-12-10T07:14:06.450Z,28.31
2023-12-10T07:16:39.678Z,27.29
2023-12-10T07:19:14.456Z,27.38
2023-12-10T07:21:50.055Z,28.75
2023-12-10T07:24:24.064Z,30.44
2023-12-10T07:26:57.249Z,28.20
2023-12-10T07:29:30.514Z,29.15
2023-12-10T07:32:03.753Z,28.75
2023-12-10T07:34:38.496Z,31.04
2023-12-10T07:37:11.906Z,27.87
2023-12-10T07:39:45.262Z,29.24
2023-12-10T07:42:18.570Z,29.27
2023-12-10T07:44:51.947Z,28.78
2023-12-10T07:47:25.232Z,27.77
2023-12-10T07:49:59.998Z,27.44
2023-12-10T07:52:33.345Z,31.62
2023-12-10T07:55:07.632Z,30.36
2023-12-10T07:57:41.109Z,31.00
2023-12-10T08:00:15.513Z,31.02
2023-12-10T08:02:48.880Z,80.66
2023-12-10T08:05:23.816Z,164.82
2023-12-10T08:07:58.136Z,138.40
2023-12-10T08:10:31.709Z,94.47
2023-12-10T08:13:05.012Z,53.07
2023-12-10T08:15:38.285Z,54.74
2023-12-10T08:18:11.702Z,59.19
2023-12-10T08:20:46.424Z,35.86
2023-12-10T08:23:19.667Z,33.49
2023-12-10T08:25:52.869Z,32.21
2023-12-10T08:28:26.128Z,33.96
2023-12-10T08:30:59.489Z,35.18
2023-12-10T08:33:32.965Z,37.29
2023-12-10T08:36:08.582Z,36.71
2023-12-10T08:38:44.868Z,33.92
2023-12-10T08:41:18.525Z,33.69
2023-12-10T08:43:51.782Z,31.46
2023-12-10T08:46:25.019Z,35.77
2023-12-10T08:48:58.826Z,33.99
2023-12-10T08:51:33.524Z,33.55
2023-12-10T08:54:06.807Z,35.94
2023-12-10T08:56:40.244Z,35.29
2023-12-10T08:59:13.501Z,33.48
2023-12-10T09:01:46.787Z,31.89
2023-12-10T09:04:20.091Z,31.93
2023-12-10T09:06:54.762Z,34.77
2023-12-10T09:09:29.533Z,32.88
2023-12-10T09:12:03.033Z,33.98
2023-12-10T09:14:37.421Z,34.82
2023-12-10T09:17:10.698Z,34.67
2023-12-10T09:19:43.974Z,34.86
2023-12-10T09:22:18.804Z,32.05
2023-12-10T09:24:52.097Z,37.21
2023-12-10T09:27:25.438Z,34.22
2023-12-10T09:29:58.919Z,32.83
2023-12-10T09:32:32.484Z,31.72
2023-12-10T09:35:06.945Z,35.77
2023-12-10T09:37:41.594Z,35.48
2023-12-10T09:40:15.552Z,33.65
2023-12-10T09:42:49.766Z,34.02
2023-12-10T09:45:23.525Z,37.46
2023-12-10T09:47:57.652Z,37.54
2023-12-10T09:50:34.029Z,36.21
2023-12-10T09:53:08.874Z,38.84
2023-12-10T09:55:42.615Z,33.87
2023-12-10T09:58:16.044Z,36.62
2023-12-10T10:00:49.511Z,38.72
2023-12-10T10:03:23.159Z,34.53
2023-12-10T10:05:56.592Z,37.85
2023-12-10T10:08:31.386Z,35.77
2023-12-10T10:11:05.004Z,38.69
2023-12-10T10:13:53.114Z,36.43
2023-12-10T10:16:26.332Z,37.10
2023-12-10T10:19:01.139Z,36.84
2023-12-10T10:21:34.886Z,37.33
2023-12-10T10:24:10.227Z,85.21
2023-12-10T10:26:45.714Z,110.39
2023-12-10T10:29:20.600Z,87.07
2023-12-10T10:31:59.360Z,54.58
2023-12-10T10:34:36.712Z,41.29
2023-12-10T10:37:10.593Z,36.39
2023-12-10T10:39:45.960Z,37.46
2023-12-10T10:42:21.668Z,36.78
2023-12-10T10:44:54.919Z,34.57
2023-12-10T10:47:30.485Z,38.29
2023-12-10T10:50:21.073Z,43.11
2023-12-10T10:52:58.499Z,42.99
2023-12-10T10:55:35.151Z,39.35
2023-12-10T10:58:31.709Z,38.06
2023-12-10T11:01:06.879Z,40.40
2023-12-10T11:03:40.321Z,40.93
2023-12-10T11:06:13.770Z,44.99
2023-12-10T11:08:57.813Z,52.20
2023-12-10T11:11:39.455Z,62.36
2023-12-10T11:14:23.057Z,46.69
2023-12-10T11:17:02.317Z,46.71
2023-12-10T11:19:35.828Z,41.74
2023-12-10T11:22:15.180Z,38.26
2023-12-10T11:24:51.927Z,37.66
2023-12-10T11:27:28.091Z,62.94
2023-12-10T11:30:01.530Z,44.40
2023-12-10T11:32:34.758Z,44.18
2023-12-10T11:35:08.613Z,47.27
2023-12-10T11:37:41.929Z,47.86
2023-12-10T11:40:15.696Z,48.75
2023-12-10T11:42:50.362Z,44.60
2023-12-10T11:45:23.596Z,45.80
2023-12-10T11:47:57.524Z,41.55
2023-12-10T11:50:33.072Z,37.83
2023-12-10T11:53:08.351Z,36.20
2023-12-10T11:55:41.800Z,38.77
2023-12-10T11:58:26.165Z,39.09
2023-12-10T12:01:01.068Z,42.87
2023-12-10T12:03:35.554Z,43.80
2023-12-10T12:06:09.454Z,44.69
2023-12-10T12:08:42.896Z,38.34
2023-12-10T12:11:18.015Z,36.55
2023-12-10T12:13:53.508Z,38.41
2023-12-10T12:16:26.801Z,37.08
2023-12-10T12:19:00.204Z,37.17
2023-12-10T12:21:33.438Z,36.67
2023-12-10T12:24:07.160Z,33.44
2023-12-10T12:26:40.529Z,37.27
2023-12-10T12:29:15.090Z,34.96
2023-12-10T12:32:04.545Z,36.14
2023-12-10T12:34:41.652Z,34.11
2023-12-10T12:37:14.988Z,35.35
2023-12-10T12:39:48.514Z,112.64
2023-12-10T12:42:23.656Z,132.19
2023-12-10T12:44:58.484Z,185.19
2023-12-10T12:47:32.162Z,62.36
2023-12-10T12:50:07.766Z,52.42
2023-12-10T12:52:41.143Z,44.36
2023-12-10T12:55:14.700Z,47.19
2023-12-10T12:57:47.945Z,40.32
2023-12-10T13:00:23.207Z,39.19
2023-12-10T13:02:58.152Z,36.10
2023-12-10T13:05:31.513Z,37.16
2023-12-10T13:08:04.803Z,32.75
2023-12-10T13:10:39.144Z,32.58
2023-12-10T13:13:13.118Z,31.89
2023-12-10T13:15:48.329Z,29.89
2023-12-10T13:18:21.699Z,30.97
2023-12-10T13:20:55.212Z,32.26
2023-12-10T13:23:28.599Z,32.20
2023-12-10T13:26:01.852Z,35.78
2023-12-10T13:28:35.142Z,91.48
2023-12-10T13:31:09.864Z,104.18
2023-12-10T13:33:43.837Z,73.14
2023-12-10T13:36:17.184Z,147.71
2023-12-10T13:38:50.839Z,155.24
2023-12-10T13:41:25.662Z,47.99
2023-12-10T13:43:58.896Z,45.81
2023-12-10T13:46:34.387Z,50.68
2023-12-10T13:49:08.429Z,56.00
2023-12-10T13:51:41.735Z,39.54
2023-12-10T13:54:15.112Z,30.69
2023-12-10T13:56:50.925Z,33.37
2023-12-10T13:59:24.442Z,32.49
2023-12-10T14:01:59.056Z,33.17
2023-12-10T14:04:32.439Z,33.69
2023-12-10T14:07:07.536Z,32.86
2023-12-10T14:09:40.886Z,31.99
2023-12-10T14:12:14.493Z,35.49
2023-12-10T14:14:47.686Z,30.62
2023-12-10T14:17:22.445Z,31.29
2023-12-10T14:19:55.811Z,29.89
2023-12-10T14:22:29.174Z,32.20
2023-12-10T14:25:03.749Z,33.51
2023-12-10T14:27:37.067Z,30.33
2023-12-10T14:30:13.369Z,31.70
2023-12-10T14:32:48.110Z,49.22
2023-12-10T14:35:21.521Z,36.28
2023-12-10T14:37:54.777Z,31.27
2023-12-10T14:40:28.031Z,31.03
2023-12-10T14:43:01.391Z,33.11
2023-12-10T14:45:34.734Z,39.99
2023-12-10T14:48:12.064Z,37.49
2023-12-10T14:50:45.368Z,32.10
2023-12-10T14:53:19.085Z,30.04
2023-12-10T14:55:52.341Z,31.61
2023-12-10T14:58:28.121Z,29.57
2023-12-10T15:01:01.425Z,30.42
2023-12-10T15:03:36.157Z,31.48
2023-12-10T15:06:09.870Z,31.81
2023-12-10T15:08:43.151Z,30.77
2023-12-10T15:11:16.394Z,31.58
2023-12-10T15:13:49.690Z,28.83
2023-12-10T15:16:24.586Z,29.56
2023-12-10T15:18:59.386Z,31.82
2023-12-10T15:21:32.719Z,31.18
2023-12-10T15:24:06.550Z,30.51
2023-12-10T15:26:39.803Z,29.37
2023-12-10T15:29:13.074Z,28.11
2023-12-10T15:31:46.959Z,26.31
2023-12-10T15:34:21.761Z,27.29
2023-12-10T15:36:55.219Z,24.63
2023-12-10T15:39:28.587Z,24.81
2023-12-10T15:42:01.911Z,23.53
2023-12-10T15:44:35.306Z,24.84
2023-12-10T15:47:08.922Z,26.24
2023-12-10T15:49:43.630Z,26.25
2023-12-10T15:52:26.126Z,25.87
2023-12-10T15:55:03.939Z,27.34
2023-12-10T15:57:38.626Z,24.99
2023-12-10T16:00:12.624Z,25.00
2023-12-10T16:02:45.904Z,25.98
2023-12-10T16:05:20.661Z,26.06
2023-12-10T16:07:54.426Z,23.58
2023-12-10T16:10:27.962Z,24.93
2023-12-10T16:13:01.212Z,26.19
2023-12-10T16:15:34.609Z,23.73
2023-12-10T16:18:07.991Z,25.13
2023-12-10T16:20:42.662Z,25.59
2023-12-10T16:23:16.154Z,25.94
2023-12-10T16:25:49.369Z,24.11
2023-12-10T16:28:22.566Z,22.74
2023-12-10T16:30:55.899Z,21.46
2023-12-10T16:33:29.275Z,22.93
2023-12-10T16:36:04.040Z,28.24
2023-12-10T16:38:37.222Z,23.48
2023-12-10T16:41:11.120Z,23.74
2023-12-10T16:43:45.550Z,26.84
2023-12-10T16:46:19.564Z,24.94
2023-12-10T16:48:52.895Z,25.79
2023-12-10T16:51:27.600Z,26.72
2023-12-10T16:54:01.961Z,28.96
2023-12-10T16:56:35.208Z,29.84
2023-12-10T16:59:08.437Z,29.72
2023-12-10T17:01:41.823Z,28.49
2023-12-10T17:04:15.208Z,28.29
2023-12-10T17:06:50.096Z,26.96
2023-12-10T17:09:23.319Z,26.74
2023-12-10T17:11:57.380Z,24.47
2023-12-10T17:14:30.588Z,27.15
2023-12-10T17:17:03.971Z,23.66
2023-12-10T17:19:37.540Z,25.17
2023-12-10T17:22:12.403Z,26.56
2023-12-10T17:24:45.715Z,23.38
2023-12-10T17:27:19.959Z,22.68
2023-12-10T17:29:53.318Z,23.99
2023-12-10T17:32:26.716Z,23.71
2023-12-10T17:35:03.717Z,23.60
2023-12-10T17:37:38.873Z,20.68
2023-12-10T17:40:13.430Z,22.19
2023-12-10T17:42:46.848Z,23.77
2023-12-10T17:45:20.868Z,24.46
2023-12-10T17:47:54.284Z,24.28
2023-12-10T17:50:27.858Z,20.98
2023-12-10T17:53:02.639Z,22.97
2023-12-10T17:55:35.844Z,20.44
2023-12-10T17:58:11.502Z,19.34
2023-12-10T18:00:46.453Z,20.42
2023-12-10T18:03:19.880Z,19.10
2023-12-10T18:05:53.169Z,21.93
2023-12-10T18:08:27.784Z,20.16
2023-12-10T18:11:01.818Z,22.35
2023-12-10T18:13:35.119Z,19.22
2023-12-10T18:16:09.136Z,17.67
2023-12-10T18:18:42.581Z,19.74
2023-12-10T18:21:16.277Z,17.96
2023-12-10T18:23:50.949Z,17.08
2023-12-10T18:26:24.164Z,17.43
2023-12-10T18:28:57.554Z,13.89
2023-12-10T18:31:31.148Z,14.88
2023-12-10T18:34:04.969Z,13.58
2023-12-10T18:36:38.326Z,13.64
2023-12-10T18:39:13.097Z,16.35
2023-12-10T18:41:46.265Z,18.49
2023-12-10T18:44:19.469Z,20.61
2023-12-10T18:46:52.891Z,15.10
2023-12-10T18:49:26.267Z,12.55
2023-12-10T18:51:59.571Z,12.85
2023-12-10T18:54:34.292Z,12.59
2023-12-10T18:57:07.514Z,11.47
2023-12-10T18:59:41.185Z,11.81
2023-12-10T19:02:14.357Z,10.27
2023-12-10T19:04:47.712Z,10.56
2023-12-10T19:07:20.996Z,9.56
2023-12-10T19:09:55.805Z,10.48
2023-12-10T19:12:29.174Z,8.00
2023-12-10T19:15:02.432Z,7.49
2023-12-10T19:17:35.994Z,9.17
2023-12-10T19:20:21.767Z,8.89
2023-12-10T19:22:55.500Z,9.21
2023-12-10T19:25:30.200Z,8.43
2023-12-10T19:28:03.488Z,8.98
2023-12-10T19:30:36.754Z,9.37
2023-12-10T19:33:10.204Z,7.57
2023-12-10T19:35:43.589Z,7.66
2023-12-10T19:38:19.829Z,7.69
2023-12-10T19:40:54.864Z,8.69
2023-12-10T19:43:28.146Z,7.52
2023-12-10T19:46:02.409Z,7.09
2023-12-10T19:48:35.752Z,8.49
2023-12-10T19:51:09.436Z,9.18
2023-12-10T19:53:44.311Z,6.59
2023-12-10T19:56:18.934Z,8.45
2023-12-10T19:58:52.112Z,8.50
2023-12-10T20:01:25.495Z,7.72
2023-12-10T20:04:00.630Z,8.10
2023-12-10T20:06:34.287Z,8.67
2023-12-10T20:09:08.684Z,8.32
2023-12-10T20:11:43.366Z,8.63
2023-12-10T20:14:16.603Z,7.67
2023-12-10T20:16:51.883Z,9.33
2023-12-10T20:19:28.608Z,7.06
2023-12-10T20:22:01.830Z,7.90
2023-12-10T20:24:38.812Z,9.72
2023-12-10T20:27:15.789Z,7.52
2023-12-10T20:29:48.969Z,8.66
2023-12-10T20:32:23.080Z,8.68
2023-12-10T20:34:56.375Z,8.02
2023-12-10T20:37:29.878Z,9.13
2023-12-10T20:40:03.537Z,8.59
2023-12-10T20:42:38.222Z,7.07
2023-12-10T20:45:11.722Z,9.66
2023-12-10T20:47:44.987Z,8.34
2023-12-10T20:50:19.054Z,10.01
2023-12-10T20:52:52.286Z,10.02
2023-12-10T20:55:25.963Z,9.44
2023-12-10T20:58:00.574Z,10.31
2023-12-10T21:00:34.863Z,10.13
2023-12-10T21:03:09.288Z,11.13
2023-12-10T21:05:43.926Z,12.30
2023-12-10T21:08:17.780Z,11.06
2023-12-10T21:10:53.577Z,11.63
2023-12-10T21:13:30.203Z,11.07
2023-12-10T21:16:03.634Z,13.46
2023-12-10T21:18:38.410Z,12.59
2023-12-10T21:21:11.680Z,13.17
2023-12-10T21:23:44.891Z,12.08
2023-12-10T21:26:18.098Z,12.98
2023-12-10T21:28:52.699Z,13.16
2023-12-10T21:31:26.085Z,14.74
2023-12-10T21:33:59.657Z,14.99
2023-12-10T21:36:33.767Z,16.07
2023-12-10T21:39:07.076Z,15.09
2023-12-10T21:41:40.302Z,16.35
2023-12-10T21:44:14.922Z,17.15
2023-12-10T21:46:48.138Z,15.12
2023-12-10T21:49:21.530Z,17.10
2023-12-10T21:51:54.873Z,18.52
2023-12-10T21:54:28.186Z,17.25
2023-12-10T21:57:01.561Z,17.20
2023-12-10T21:59:36.337Z,19.60
2023-12-10T22:02:09.614Z,18.97
2023-12-10T22:04:42.995Z,18.77
2023-12-10T22:07:17.555Z,20.60
2023-12-10T22:09:51.336Z,19.67
2023-12-10T22:12:24.585Z,23.25
2023-12-10T22:15:01.709Z,23.28
2023-12-10T22:17:35.134Z,23.10
2023-12-10T22:20:09.978Z,23.32
2023-12-10T22:22:45.049Z,25.47
2023-12-10T22:25:18.608Z,27.25
2023-12-10T22:27:52.029Z,29.03
2023-12-10T22:30:28.318Z,28.27
2023-12-10T22:33:02.404Z,26.05
2023-12-10T22:35:35.748Z,26.62
2023-12-10T22:38:08.969Z,26.74
2023-12-10T22:40:42.170Z,27.62
2023-12-10T22:43:16.057Z,27.39
2023-12-10T22:45:50.709Z,25.38
2023-12-10T22:48:24.044Z,27.14
2023-12-10T22:50:58.024Z,26.62
2023-12-10T22:53:31.218Z,25.43
2023-12-10T22:56:04.775Z,25.01
2023-12-10T22:58:37.987Z,25.42
2023-12-10T23:01:12.764Z,24.65
2023-12-10T23:03:46.162Z,25.11
2023-12-10T23:06:19.806Z,25.41
2023-12-10T23:08:53.121Z,25.71
2023-12-10T23:11:26.401Z,28.17
2023-12-10T23:13:59.647Z,27.27
2023-12-10T23:16:34.252Z,28.81
2023-12-10T23:19:07.569Z,25.77
2023-12-10T23:21:40.850Z,28.43
2023-12-10T23:24:14.240Z,32.32
2023-12-10T23:26:47.538Z,29.94
2023-12-10T23:29:20.793Z,26.26
2023-12-10T23:31:55.370Z,30.48
2023-12-10T23:34:28.657Z,29.16
2023-12-10T23:37:02.020Z,30.26
2023-12-10T23:39:35.293Z,29.15
2023-12-10T23:42:08.798Z,29.74
2023-12-10T23:44:42.062Z,27.00
2023-12-10T23:47:16.788Z,27.46
2023-12-10T23:49:50.097Z,28.75
2023-12-10T23:52:23.392Z,31.13
2023-12-10T23:54:56.690Z,27.88
2023-12-10T23:57:30.243Z,28.10
